Eagle County Regional Airport
KEGE : rendu visible

Aérodrome :











RETROUVEZ-NOUS SUR...

 
LOGIN :

S'inscrire | Disclaimer

   EN    FR    IT 

 









Légende :    VFR   VFR Marginal   IFR   IFR Intensif   IFR Très Intensif
Visi : 
Plafond : 
>= 8 km
>= 3000ft
5 à 8 km
1000 à 3000 ft
1500m à 5 km
500 à 1000 ft
800 à 1500m
200 à 500 ft
< 800m
< 200 ft
Symboles :   Orages  Brouillard  Fortes neiges  Fortes précipitations  Vent > 20 kt






- Altitude de l'aérodrome : 6548 ft
- Code IATA : EGE


KEGE - Eagle County Regional

DERNIER METAR :
  • 221556Z 00000KT 10SM CLR M09/M12 A3032 RMK AO2 SLP340 T10891122 PNO $

METARs EXPIRÉS :
  • 221456Z 00000KT 10SM CLR M11/M13 A3032 RMK AO2 SLP340 6//// T11111133 53006 PNO $
  • 221356Z AUTO 16003KT 10SM CLR M12/M14 A3031 RMK AO2 SLP334 T11171139 PNO $

TAF KEGE
Valide du 22 à 12h jusqu'au 23 à 12h UTC


221135Z 2212/2312 10005KT P6SM FEW100 FEW200
FM221500 VRB03KT P6SM FEW070 SCT100
FM230200 10005KT P6SM VCSH SCT060 BKN100
FM230600 00000KT P6SM -RA SCT020 BKN050
FM231000 00000KT 3SM BR VCSH FEW010 SCT045



MET'MAP, la Météo Aéronautique d'un coup d'oeil ! - Copyright ORBIFLY Décembre 2007 - Disclaimer

ORBIFLY MET'MAP TEAM :

Programmation & Développement : Alexandra Zaïnal
Sur une idée originale de : Baudouin d'Aumeries
Assistance à la programmation : Marc-Olivier Méhu
Soutien technique & logistique : Manuel Goepfert

Contact : metmap@orbifly.com




SOURCES & CREDITS :

   NOAA       Earth
Advisory